createdAt,value
2017-06-11T00:01:09.339Z,6.37
2017-06-11T00:03:36.874Z,5.00
2017-06-11T00:06:04.450Z,6.33
2017-06-11T00:08:31.988Z,5.57
2017-06-11T00:10:59.526Z,5.80
2017-06-11T00:13:27.108Z,6.60
2017-06-11T00:15:54.697Z,5.60
2017-06-11T00:18:22.293Z,7.63
2017-06-11T00:20:50.138Z,9.60
2017-06-11T00:23:17.670Z,6.67
2017-06-11T00:25:45.241Z,6.03
2017-06-11T00:28:12.811Z,6.57
2017-06-11T00:30:40.376Z,6.43
2017-06-11T00:33:07.953Z,7.30
2017-06-11T00:35:35.481Z,6.17
2017-06-11T00:38:03.032Z,6.83
2017-06-11T00:40:30.613Z,6.47
2017-06-11T00:42:58.152Z,7.90
2017-06-11T00:45:25.729Z,6.10
2017-06-11T00:47:53.296Z,6.50
2017-06-11T00:50:20.854Z,10.53
2017-06-11T00:52:48.443Z,7.43
2017-06-11T00:55:15.994Z,6.70
2017-06-11T00:57:43.518Z,6.57
2017-06-11T01:00:11.055Z,9.70
2017-06-11T01:02:38.619Z,6.43
2017-06-11T01:05:06.180Z,7.10
2017-06-11T01:07:33.746Z,6.80
2017-06-11T01:10:01.320Z,7.87
2017-06-11T01:12:28.848Z,8.23
2017-06-11T01:14:56.400Z,7.27
2017-06-11T01:17:24.965Z,8.00
2017-06-11T01:19:52.528Z,7.97
2017-06-11T01:22:20.079Z,7.93
2017-06-11T01:24:47.675Z,7.60
2017-06-11T01:27:15.221Z,8.20
2017-06-11T01:29:42.766Z,7.80
2017-06-11T01:32:10.392Z,9.47
2017-06-11T01:34:37.938Z,12.37
2017-06-11T01:37:05.493Z,7.47
2017-06-11T01:39:34.067Z,7.90
2017-06-11T01:42:01.642Z,8.40
2017-06-11T01:44:29.205Z,16.67
2017-06-11T01:46:56.767Z,8.40
2017-06-11T01:49:24.345Z,8.80
2017-06-11T01:51:51.896Z,8.67
2017-06-11T01:54:19.473Z,8.90
2017-06-11T01:56:47.022Z,8.50
2017-06-11T01:59:14.615Z,8.83
2017-06-11T02:01:42.431Z,9.10
2017-06-11T02:04:10.381Z,8.07
2017-06-11T02:06:37.951Z,11.87
2017-06-11T02:09:05.521Z,9.97
2017-06-11T02:11:33.057Z,9.33
2017-06-11T02:14:00.624Z,9.37
2017-06-11T02:16:28.331Z,9.40
2017-06-11T02:18:55.867Z,10.73
2017-06-11T02:21:23.394Z,11.10
2017-06-11T02:23:50.983Z,10.10
2017-06-11T02:26:18.530Z,9.00
2017-06-11T02:28:46.080Z,8.50
2017-06-11T02:31:13.641Z,9.23
2017-06-11T02:33:41.264Z,10.37
2017-06-11T02:36:08.824Z,10.67
2017-06-11T02:38:36.355Z,8.37
2017-06-11T02:41:03.916Z,7.87
2017-06-11T02:43:31.482Z,9.23
2017-06-11T02:45:59.051Z,8.87
2017-06-11T02:48:26.597Z,9.00
2017-06-11T02:50:54.185Z,12.43
2017-06-11T02:53:21.744Z,9.53
2017-06-11T02:55:50.035Z,12.80
2017-06-11T02:58:17.583Z,9.20
2017-06-11T03:00:45.154Z,9.60
2017-06-11T03:03:12.690Z,8.83
2017-06-11T03:05:40.265Z,9.67
2017-06-11T03:08:07.789Z,13.77
2017-06-11T03:10:35.358Z,8.80
2017-06-11T03:13:02.919Z,8.83
2017-06-11T03:15:30.479Z,9.13
2017-06-11T03:17:58.062Z,9.20
2017-06-11T03:20:25.612Z,8.67
2017-06-11T03:22:53.151Z,8.13
2017-06-11T03:25:20.734Z,8.80
2017-06-11T03:27:48.278Z,8.77
2017-06-11T03:30:15.860Z,10.30
2017-06-11T03:32:43.458Z,12.53
2017-06-11T03:35:11.040Z,8.63
2017-06-11T03:37:38.592Z,10.20
2017-06-11T03:40:06.173Z,9.17
2017-06-11T03:42:33.734Z,8.70
2017-06-11T03:45:01.287Z,8.93
2017-06-11T03:47:29.696Z,10.83
2017-06-11T03:49:57.259Z,13.10
2017-06-11T03:52:24.860Z,10.10
2017-06-11T03:54:52.386Z,9.07
2017-06-11T03:57:19.933Z,8.63
2017-06-11T03:59:48.493Z,8.07
2017-06-11T04:02:16.065Z,7.57
2017-06-11T04:04:43.621Z,7.97
2017-06-11T04:07:11.189Z,7.63
2017-06-11T04:09:38.719Z,9.87
2017-06-11T04:12:06.268Z,10.80
2017-06-11T04:14:33.835Z,7.80
2017-06-11T04:17:01.408Z,7.90
2017-06-11T04:19:28.950Z,6.80
2017-06-11T04:21:56.519Z,7.27
2017-06-11T04:24:24.068Z,6.37
2017-06-11T04:26:51.610Z,5.90
2017-06-11T04:29:19.188Z,5.60
2017-06-11T04:31:47.209Z,5.50
2017-06-11T04:34:15.644Z,5.07
2017-06-11T04:36:44.205Z,4.70
2017-06-11T04:39:11.772Z,5.17
2017-06-11T04:41:39.344Z,5.23
2017-06-11T04:44:06.894Z,5.10
2017-06-11T04:46:34.467Z,4.97
2017-06-11T04:49:01.989Z,5.67
2017-06-11T04:51:29.519Z,5.80
2017-06-11T04:53:57.083Z,5.87
2017-06-11T04:56:24.611Z,5.03
2017-06-11T04:58:52.172Z,4.77
2017-06-11T05:01:21.039Z,6.50
2017-06-11T05:03:48.665Z,5.57
2017-06-11T05:06:16.387Z,4.80
2017-06-11T05:08:44.160Z,5.60
2017-06-11T05:11:11.729Z,5.57
2017-06-11T05:13:39.271Z,5.40
2017-06-11T05:16:06.922Z,4.80
2017-06-11T05:18:34.484Z,4.10
2017-06-11T05:21:02.048Z,4.33
2017-06-11T05:23:29.634Z,5.20
2017-06-11T05:25:57.427Z,5.20
2017-06-11T05:28:25.224Z,5.10
2017-06-11T05:30:52.803Z,4.63
2017-06-11T05:33:20.575Z,4.63
2017-06-11T05:35:48.383Z,5.23
2017-06-11T05:38:15.992Z,5.50
2017-06-11T05:40:43.549Z,4.63
2017-06-11T05:43:11.112Z,4.97
2017-06-11T05:45:38.642Z,5.30
2017-06-11T05:48:06.177Z,4.67
2017-06-11T05:50:33.857Z,4.03
2017-06-11T05:53:01.412Z,4.80
2017-06-11T05:55:28.930Z,4.27
2017-06-11T05:57:56.487Z,5.30
2017-06-11T06:00:24.528Z,5.00
2017-06-11T06:02:52.243Z,4.50
2017-06-11T06:05:20.226Z,5.10
2017-06-11T06:07:47.968Z,5.70
2017-06-11T06:10:15.712Z,5.03
2017-06-11T06:12:44.071Z,4.90
2017-06-11T06:15:11.806Z,5.20
2017-06-11T06:17:39.431Z,5.10
2017-06-11T06:20:07.011Z,5.27
2017-06-11T06:22:34.564Z,4.47
2017-06-11T06:25:02.116Z,4.57
2017-06-11T06:27:29.672Z,4.37
2017-06-11T06:29:57.224Z,4.50
2017-06-11T06:32:24.783Z,7.13
2017-06-11T06:34:52.359Z,4.70
2017-06-11T06:37:19.917Z,5.90
2017-06-11T06:39:47.512Z,4.97
2017-06-11T06:42:15.094Z,6.83
2017-06-11T06:44:42.635Z,5.43
2017-06-11T06:47:10.172Z,6.03
2017-06-11T06:49:37.734Z,6.00
2017-06-11T06:52:05.344Z,5.43
2017-06-11T06:54:32.894Z,4.80
2017-06-11T06:57:01.433Z,4.93
2017-06-11T06:59:28.972Z,4.57
2017-06-11T07:01:56.522Z,8.50
2017-06-11T07:04:24.095Z,4.73
2017-06-11T07:06:51.639Z,5.10
2017-06-11T07:09:22.561Z,4.93
2017-06-11T07:11:54.032Z,4.60
2017-06-11T07:14:23.665Z,4.73
2017-06-11T07:16:51.223Z,4.80
2017-06-11T07:19:18.775Z,4.60
2017-06-11T07:21:46.329Z,4.50
2017-06-11T07:24:13.915Z,6.53
2017-06-11T07:26:41.471Z,4.53
2017-06-11T07:29:09.005Z,4.33
2017-06-11T07:31:36.596Z,4.60
2017-06-11T07:34:04.164Z,5.10
2017-06-11T07:36:31.724Z,4.27
2017-06-11T07:38:59.318Z,4.80
2017-06-11T07:41:26.866Z,4.30
2017-06-11T07:43:54.470Z,4.90
2017-06-11T07:46:22.077Z,4.27
2017-06-11T07:48:49.599Z,4.00
2017-06-11T07:51:17.158Z,3.60
2017-06-11T07:53:45.404Z,4.10
2017-06-11T07:56:12.947Z,3.57
2017-06-11T07:58:41.211Z,3.83
2017-06-11T08:01:08.811Z,4.03
2017-06-11T08:03:36.692Z,3.93
2017-06-11T08:06:04.267Z,4.63
2017-06-11T08:08:31.843Z,10.93
2017-06-11T08:10:59.404Z,3.80
2017-06-11T08:13:26.931Z,4.00
2017-06-11T08:15:54.486Z,3.97
2017-06-11T08:18:22.019Z,3.70
2017-06-11T08:20:49.582Z,4.23
2017-06-11T08:23:17.142Z,4.30
2017-06-11T08:25:44.747Z,4.10
2017-06-11T08:28:12.328Z,4.13
2017-06-11T08:30:39.908Z,3.93
2017-06-11T08:33:07.467Z,3.93
2017-06-11T08:35:35.064Z,3.77
2017-06-11T08:38:02.641Z,4.00
2017-06-11T08:40:33.764Z,3.67
2017-06-11T08:43:01.386Z,3.83
2017-06-11T08:45:28.948Z,3.87
2017-06-11T08:47:56.499Z,3.87
2017-06-11T08:50:24.083Z,4.63
2017-06-11T08:52:51.629Z,3.70
2017-06-11T08:55:19.289Z,3.70
2017-06-11T08:57:46.872Z,3.83
2017-06-11T09:00:14.428Z,3.57
2017-06-11T09:02:42.015Z,4.33
2017-06-11T09:05:09.610Z,3.50
2017-06-11T09:07:37.156Z,3.57
2017-06-11T09:10:04.819Z,3.80
2017-06-11T09:12:32.398Z,3.40
2017-06-11T09:14:59.947Z,4.80
2017-06-11T09:18:50.613Z,3.93
2017-06-11T09:21:18.225Z,3.27
2017-06-11T09:23:45.760Z,3.67
2017-06-11T09:26:13.353Z,3.50
2017-06-11T09:28:40.941Z,3.90
2017-06-11T09:31:08.518Z,3.10
2017-06-11T09:33:36.264Z,4.30
2017-06-11T09:36:03.823Z,3.93
2017-06-11T09:38:31.505Z,3.93
2017-06-11T09:40:59.081Z,3.87
2017-06-11T09:43:26.645Z,3.60
2017-06-11T09:45:54.187Z,3.40
2017-06-11T09:48:21.763Z,4.00
2017-06-11T09:50:49.297Z,4.13
2017-06-11T09:53:16.848Z,3.70
2017-06-11T09:55:44.506Z,3.67
2017-06-11T09:58:12.102Z,3.70
2017-06-11T10:00:39.807Z,4.00
2017-06-11T10:03:07.476Z,3.20
2017-06-11T10:05:35.048Z,3.30
2017-06-11T10:08:02.852Z,3.50
2017-06-11T10:10:30.428Z,3.00
2017-06-11T10:12:58.048Z,3.80
2017-06-11T10:15:25.633Z,3.37
2017-06-11T10:17:53.253Z,3.43
2017-06-11T10:20:20.860Z,3.20
2017-06-11T10:22:49.829Z,4.27
2017-06-11T10:25:17.530Z,3.80
2017-06-11T10:27:45.470Z,4.10
2017-06-11T10:30:13.100Z,3.90
2017-06-11T10:32:40.964Z,3.70
2017-06-11T10:35:08.579Z,3.40
2017-06-11T10:37:36.187Z,3.37
2017-06-11T10:40:03.769Z,3.57
2017-06-11T10:42:31.530Z,3.27
2017-06-11T10:44:59.119Z,3.30
2017-06-11T10:47:26.680Z,3.70
2017-06-11T10:49:54.299Z,3.70
2017-06-11T10:52:21.939Z,3.40
2017-06-11T10:54:49.529Z,3.40
2017-06-11T10:57:18.050Z,4.00
2017-06-11T10:59:45.613Z,3.77
2017-06-11T11:02:13.231Z,3.77
2017-06-11T11:04:41.327Z,3.90
2017-06-11T11:07:08.870Z,3.57
2017-06-11T11:09:36.434Z,3.30
2017-06-11T11:12:05.039Z,3.53
2017-06-11T11:14:32.583Z,3.80
2017-06-11T11:17:01.170Z,3.70
2017-06-11T11:19:28.731Z,3.93
2017-06-11T11:21:56.294Z,3.43
2017-06-11T11:24:23.855Z,3.77
2017-06-11T11:26:51.397Z,3.50
2017-06-11T11:29:18.961Z,3.23
2017-06-11T11:31:46.583Z,3.27
2017-06-11T11:34:14.127Z,3.53
2017-06-11T11:36:41.674Z,4.10
2017-06-11T11:39:09.235Z,3.77
2017-06-11T11:41:36.973Z,3.90
2017-06-11T11:44:04.778Z,3.97
2017-06-11T11:46:32.686Z,3.63
2017-06-11T11:49:00.539Z,3.03
2017-06-11T11:51:28.417Z,3.40
2017-06-11T11:53:58.427Z,3.40
2017-06-11T11:56:27.394Z,3.23
2017-06-11T11:58:55.262Z,3.30
2017-06-11T12:01:24.531Z,3.27
2017-06-11T12:03:52.394Z,3.50
2017-06-11T12:06:19.980Z,3.20
2017-06-11T12:08:47.554Z,3.73
2017-06-11T12:11:15.279Z,3.50
2017-06-11T12:13:42.976Z,3.07
2017-06-11T12:16:10.545Z,3.53
2017-06-11T12:18:38.150Z,4.23
2017-06-11T12:21:05.786Z,3.83
2017-06-11T12:23:33.338Z,8.47
2017-06-11T12:26:00.883Z,3.73
2017-06-11T12:28:28.460Z,3.50
2017-06-11T12:30:55.995Z,3.30
2017-06-11T12:33:23.525Z,3.23
2017-06-11T12:35:51.115Z,3.30
2017-06-11T12:38:18.679Z,3.30
2017-06-11T12:40:46.220Z,3.03
2017-06-11T12:43:13.855Z,3.40
2017-06-11T12:45:41.417Z,3.23
2017-06-11T12:48:08.948Z,3.23
2017-06-11T12:50:36.523Z,3.60
2017-06-11T12:53:04.081Z,3.50
2017-06-11T12:55:31.625Z,3.17
2017-06-11T12:57:59.178Z,3.20
2017-06-11T13:00:26.740Z,3.60
2017-06-11T13:02:54.310Z,2.60
2017-06-11T13:05:21.881Z,3.20
2017-06-11T13:07:49.720Z,3.40
2017-06-11T13:10:17.501Z,3.43
2017-06-11T13:12:45.093Z,3.23
2017-06-11T13:15:12.721Z,3.00
2017-06-11T13:17:40.282Z,3.37
2017-06-11T13:20:07.879Z,3.30
2017-06-11T13:22:35.492Z,2.97
2017-06-11T13:25:03.057Z,3.13
2017-06-11T13:27:30.640Z,2.93
2017-06-11T13:29:58.205Z,3.50
2017-06-11T13:32:25.970Z,3.13
2017-06-11T13:34:53.600Z,3.37
2017-06-11T13:37:21.210Z,2.90
2017-06-11T13:39:48.876Z,2.90
2017-06-11T13:42:16.464Z,3.13
2017-06-11T13:44:44.057Z,3.37
2017-06-11T13:47:11.650Z,3.30
2017-06-11T13:49:42.276Z,3.07
2017-06-11T13:52:09.911Z,3.27
2017-06-11T13:54:37.509Z,3.20
2017-06-11T14:00:12.255Z,3.00
2017-06-11T14:02:41.329Z,3.27
2017-06-11T14:05:09.748Z,2.83
2017-06-11T14:07:39.507Z,3.73
2017-06-11T14:10:07.362Z,2.90
2017-06-11T14:12:35.104Z,2.90
2017-06-11T14:15:02.665Z,3.13
2017-06-11T14:17:30.252Z,3.13
2017-06-11T14:19:57.828Z,2.97
2017-06-11T14:22:25.655Z,3.23
2017-06-11T14:24:53.524Z,3.10
2017-06-11T14:27:21.293Z,3.13
2017-06-11T14:29:49.021Z,3.63
2017-06-11T14:32:16.747Z,3.00
2017-06-11T14:34:56.717Z,2.93
2017-06-11T14:37:24.282Z,3.00
2017-06-11T14:39:51.835Z,2.97
2017-06-11T14:42:19.390Z,3.03
2017-06-11T14:44:46.934Z,2.93
2017-06-11T14:47:14.482Z,3.70
2017-06-11T14:49:42.053Z,3.10
2017-06-11T14:52:09.654Z,3.40
2017-06-11T14:54:37.201Z,3.47
2017-06-11T14:57:18.087Z,3.13
2017-06-11T14:59:45.746Z,3.57
2017-06-11T15:02:13.351Z,3.40
2017-06-11T15:04:40.951Z,2.80
2017-06-11T15:07:08.520Z,3.10
2017-06-11T15:09:43.590Z,2.90
2017-06-11T15:12:13.001Z,3.30
2017-06-11T15:14:48.519Z,3.07
2017-06-11T15:17:16.972Z,3.63
2017-06-11T15:19:44.513Z,2.97
2017-06-11T15:22:12.097Z,3.20
2017-06-11T15:24:39.684Z,3.40
2017-06-11T15:27:07.297Z,3.20
2017-06-11T15:29:35.042Z,3.07
2017-06-11T15:32:02.660Z,3.07
2017-06-11T15:34:30.252Z,3.03
2017-06-11T15:36:57.880Z,3.37
2017-06-11T15:39:25.442Z,2.70
2017-06-11T15:41:53.085Z,3.03
2017-06-11T15:44:20.649Z,2.97
2017-06-11T15:46:48.371Z,3.30
2017-06-11T15:49:15.959Z,2.80
2017-06-11T15:51:45.538Z,2.63
2017-06-11T15:54:13.139Z,2.87
2017-06-11T15:56:40.697Z,2.47
2017-06-11T15:59:24.922Z,2.80
2017-06-11T16:01:58.283Z,3.10
2017-06-11T16:04:26.213Z,2.63
2017-06-11T16:07:15.541Z,2.60
2017-06-11T16:09:47.675Z,2.70
2017-06-11T16:12:15.519Z,2.70
2017-06-11T16:14:43.061Z,2.80
2017-06-11T16:17:10.630Z,3.03
2017-06-11T16:19:38.235Z,3.00
2017-06-11T16:22:05.859Z,2.50
2017-06-11T16:24:33.450Z,4.27
2017-06-11T16:27:01.163Z,2.77
2017-06-11T16:29:28.708Z,2.70
2017-06-11T16:31:56.290Z,2.90
2017-06-11T16:34:23.834Z,2.70
2017-06-11T16:36:51.355Z,2.67
2017-06-11T16:39:18.932Z,2.73
2017-06-11T16:41:47.456Z,2.50
2017-06-11T16:44:16.586Z,2.70
2017-06-11T16:46:44.288Z,2.40
2017-06-11T16:49:11.861Z,2.93
2017-06-11T16:51:39.398Z,2.80
2017-06-11T16:54:07.027Z,2.80
2017-06-11T16:56:34.642Z,2.93
2017-06-11T16:59:02.223Z,2.87
2017-06-11T17:01:29.818Z,3.17
2017-06-11T17:03:57.432Z,3.73
2017-06-11T17:06:25.013Z,3.07
2017-06-11T17:08:53.053Z,3.17
2017-06-11T17:11:23.325Z,5.63
2017-06-11T17:13:50.876Z,3.20
2017-06-11T17:16:18.886Z,3.23
2017-06-11T17:18:46.447Z,3.30
2017-06-11T17:21:14.021Z,3.60
2017-06-11T17:23:41.609Z,5.40
2017-06-11T17:26:09.474Z,3.30
2017-06-11T17:28:37.075Z,3.30
2017-06-11T17:31:04.723Z,3.47
2017-06-11T17:33:32.309Z,3.23
2017-06-11T17:35:59.910Z,3.23
2017-06-11T17:38:27.488Z,3.43
2017-06-11T17:40:55.057Z,3.30
2017-06-11T17:43:22.596Z,2.80
2017-06-11T17:45:50.132Z,3.20
2017-06-11T17:48:17.692Z,4.90
2017-06-11T17:50:45.236Z,3.70
2017-06-11T17:53:12.763Z,2.60
2017-06-11T17:55:40.322Z,3.70
2017-06-11T17:58:07.854Z,3.10
2017-06-11T18:00:35.375Z,3.10
2017-06-11T18:03:02.941Z,3.37
2017-06-11T18:05:30.473Z,3.37
2017-06-11T18:07:58.034Z,3.87
2017-06-11T18:10:25.615Z,3.07
2017-06-11T18:12:53.156Z,3.97
2017-06-11T18:15:20.684Z,3.43
2017-06-11T18:17:48.259Z,3.30
2017-06-11T18:20:15.793Z,3.87
2017-06-11T18:22:43.340Z,2.83
2017-06-11T18:25:10.898Z,3.23
2017-06-11T18:27:38.441Z,4.43
2017-06-11T18:30:06.016Z,5.10
2017-06-11T18:32:33.581Z,3.93
2017-06-11T18:35:01.124Z,3.97
2017-06-11T18:37:28.658Z,3.47
2017-06-11T18:39:56.224Z,3.17
2017-06-11T18:42:23.834Z,3.37
2017-06-11T18:44:51.392Z,3.50
2017-06-11T18:47:18.966Z,3.13
2017-06-11T18:49:46.512Z,3.13
2017-06-11T18:52:14.071Z,3.07
2017-06-11T18:54:41.642Z,3.00
2017-06-11T18:57:09.191Z,3.20
2017-06-11T18:59:36.740Z,3.13
2017-06-11T19:02:04.329Z,4.70
2017-06-11T19:04:31.892Z,2.60
2017-06-11T19:06:59.663Z,3.17
2017-06-11T19:09:27.253Z,3.20
2017-06-11T19:11:54.837Z,3.77
2017-06-11T19:14:22.456Z,4.17
2017-06-11T19:16:50.058Z,3.23
2017-06-11T19:19:17.659Z,3.30
2017-06-11T19:21:45.209Z,4.40
2017-06-11T19:24:12.797Z,3.23
2017-06-11T19:26:40.350Z,2.90
2017-06-11T19:29:07.899Z,2.43
2017-06-11T19:31:35.474Z,2.70
2017-06-11T19:34:03.107Z,3.20
2017-06-11T19:36:30.695Z,4.30
2017-06-11T19:38:58.258Z,3.27
2017-06-11T19:41:25.824Z,5.43
2017-06-11T19:43:53.367Z,3.33
2017-06-11T19:46:21.012Z,2.97
2017-06-11T19:48:48.565Z,2.83
2017-06-11T19:51:16.127Z,3.20
2017-06-11T19:53:43.687Z,2.80
2017-06-11T19:56:11.236Z,3.33
2017-06-11T19:58:38.807Z,3.10
2017-06-11T20:01:06.373Z,3.10
2017-06-11T20:03:33.962Z,3.10
2017-06-11T20:06:01.546Z,3.20
2017-06-11T20:08:29.117Z,2.97
2017-06-11T20:10:56.688Z,3.10
2017-06-11T20:13:24.220Z,3.30
2017-06-11T20:15:51.791Z,3.57
2017-06-11T20:18:20.872Z,3.07
2017-06-11T20:20:48.404Z,5.13
2017-06-11T20:23:16.977Z,3.73
2017-06-11T20:25:44.573Z,5.20
2017-06-11T20:28:12.119Z,4.30
2017-06-11T20:30:39.699Z,4.40
2017-06-11T20:33:07.257Z,3.13
2017-06-11T20:35:34.820Z,3.50
2017-06-11T20:38:02.393Z,3.60
2017-06-11T20:40:30.007Z,3.47
2017-06-11T20:42:57.591Z,3.90
2017-06-11T20:45:25.167Z,3.50
2017-06-11T20:47:52.761Z,4.77
2017-06-11T20:50:21.843Z,3.03
2017-06-11T20:52:49.412Z,3.10
2017-06-11T20:55:17.029Z,3.23
2017-06-11T20:57:44.597Z,3.30
2017-06-11T21:00:13.515Z,3.47
2017-06-11T21:02:41.070Z,3.50
2017-06-11T21:05:08.685Z,3.57
2017-06-11T21:07:36.271Z,3.20
2017-06-11T21:10:03.832Z,3.67
2017-06-11T21:12:31.372Z,4.70
2017-06-11T21:14:59.392Z,5.37
2017-06-11T21:17:26.950Z,3.37
2017-06-11T21:19:54.593Z,6.13
2017-06-11T21:22:22.145Z,2.93
2017-06-11T21:24:53.832Z,3.90
2017-06-11T21:27:21.427Z,4.30
2017-06-11T21:29:48.963Z,3.50
2017-06-11T21:32:16.624Z,3.80
2017-06-11T21:34:44.251Z,3.50
2017-06-11T21:37:11.853Z,3.73
2017-06-11T21:39:39.572Z,3.53
2017-06-11T21:42:08.133Z,3.60
2017-06-11T21:44:35.694Z,4.37
2017-06-11T21:47:03.252Z,3.70
2017-06-11T21:49:30.823Z,3.13
2017-06-11T21:51:59.213Z,3.10
2017-06-11T21:54:27.015Z,3.60
2017-06-11T21:56:54.729Z,3.27
2017-06-11T21:59:22.439Z,3.40
2017-06-11T22:01:50.153Z,2.90
2017-06-11T22:04:17.914Z,3.10
2017-06-11T22:06:45.473Z,2.83
2017-06-11T22:09:13.073Z,3.80
2017-06-11T22:11:40.641Z,4.93
2017-06-11T22:14:08.209Z,3.07
2017-06-11T22:16:35.762Z,3.40
2017-06-11T22:19:04.310Z,3.27
2017-06-11T22:21:31.836Z,3.63
2017-06-11T22:23:59.385Z,3.40
2017-06-11T22:26:26.954Z,3.20
2017-06-11T22:28:54.521Z,2.90
2017-06-11T22:31:22.063Z,3.60
2017-06-11T22:33:49.608Z,3.53
2017-06-11T22:36:17.139Z,3.33
2017-06-11T22:38:44.688Z,3.90
2017-06-11T22:41:12.295Z,3.00
2017-06-11T22:43:39.857Z,3.43
2017-06-11T22:46:07.442Z,3.13
2017-06-11T22:48:35.316Z,2.97
2017-06-11T22:51:02.872Z,3.17
2017-06-11T22:53:30.711Z,3.53
2017-06-11T22:55:58.313Z,3.50
2017-06-11T22:58:25.871Z,3.10
2017-06-11T23:00:53.492Z,2.83
2017-06-11T23:03:21.053Z,2.83
2017-06-11T23:05:48.594Z,2.93
2017-06-11T23:08:16.148Z,3.00
2017-06-11T23:10:43.707Z,3.63
2017-06-11T23:13:11.249Z,3.17
2017-06-11T23:15:38.783Z,3.57
2017-06-11T23:18:08.053Z,3.60
2017-06-11T23:20:35.600Z,3.13
2017-06-11T23:23:03.161Z,3.40
2017-06-11T23:25:30.715Z,10.17
2017-06-11T23:27:58.246Z,4.13
2017-06-11T23:30:25.802Z,2.93
2017-06-11T23:32:53.352Z,5.90
2017-06-11T23:35:20.886Z,3.23
2017-06-11T23:37:48.447Z,3.10
2017-06-11T23:40:16.012Z,3.47
2017-06-11T23:42:43.540Z,3.13
2017-06-11T23:45:11.127Z,3.30
2017-06-11T23:47:38.659Z,3.47
2017-06-11T23:50:06.204Z,2.87
2017-06-11T23:52:33.761Z,3.20
2017-06-11T23:55:01.324Z,8.53
2017-06-11T23:57:28.847Z,3.83
2017-06-11T23:59:56.424Z,4.70
